Washington, Mississippi
Current Conditions -  °F | °C
As of 1:15 PM on Sunday 21 Dec 2014 (Local Time) from KHEZ Reporting Station
Clear Clear  
Wind Chill: 14°   Ceiling: Unl
Heat Index: 14°   Visibility: 10mi
Dew Point:   Wind: 0mph
Humidity: 72%   Direction: NA
Pressure: 30.04"   Gusts: NA
Location:  31.58°N, 91.3°W
Report Text: KHEZ 211915Z AUTO 00000KT 10SM CLR 14/09 A3004 RMK AO1
Loading
Personal Weather Stations






























Interactive Weather Map New forecast layout! Learn more

10-Day Weather Forecast

Advertisements
Track Severe Weather on mobile